sensor_id;sensor_type;location;lat;lon;timestamp;P1;durP1;ratioP1;P2;durP2;ratioP2
48951;SDS011;34758;42.148;24.744;2023-02-28T00:01:20;12.45;;;5.10;;
48951;SDS011;34758;42.148;24.744;2023-02-28T00:03:49;11.88;;;5.18;;
48951;SDS011;34758;42.148;24.744;2023-02-28T00:06:16;10.70;;;5.45;;
48951;SDS011;34758;42.148;24.744;2023-02-28T00:08:46;9.40;;;5.55;;
48951;SDS011;34758;42.148;24.744;2023-02-28T00:11:14;6.72;;;4.68;;
48951;SDS011;34758;42.148;24.744;2023-02-28T00:13:44;9.77;;;5.75;;
48951;SDS011;34758;42.148;24.744;2023-02-28T00:16:13;8.48;;;5.32;;
48951;SDS011;34758;42.148;24.744;2023-02-28T00:18:42;12.80;;;5.40;;
48951;SDS011;34758;42.148;24.744;2023-02-28T00:21:10;10.15;;;5.00;;
48951;SDS011;34758;42.148;24.744;2023-02-28T00:23:40;13.00;;;6.35;;
48951;SDS011;34758;42.148;24.744;2023-02-28T00:26:10;10.25;;;5.47;;
48951;SDS011;34758;42.148;24.744;2023-02-28T00:28:37;9.45;;;5.10;;
48951;SDS011;34758;42.148;24.744;2023-02-28T00:31:04;14.00;;;6.85;;
48951;SDS011;34758;42.148;24.744;2023-02-28T00:33:31;9.75;;;5.38;;
48951;SDS011;34758;42.148;24.744;2023-02-28T00:36:03;12.98;;;5.20;;
48951;SDS011;34758;42.148;24.744;2023-02-28T00:38:31;13.02;;;5.43;;
48951;SDS011;34758;42.148;24.744;2023-02-28T00:40:58;9.32;;;5.40;;
48951;SDS011;34758;42.148;24.744;2023-02-28T00:43:32;12.85;;;4.88;;
48951;SDS011;34758;42.148;24.744;2023-02-28T00:45:59;16.42;;;5.07;;
48951;SDS011;34758;42.148;24.744;2023-02-28T00:48:29;13.70;;;5.18;;
48951;SDS011;34758;42.148;24.744;2023-02-28T00:50:56;10.68;;;5.15;;
48951;SDS011;34758;42.148;24.744;2023-02-28T00:53:23;9.77;;;5.15;;
48951;SDS011;34758;42.148;24.744;2023-02-28T00:55:50;11.77;;;5.85;;
48951;SDS011;34758;42.148;24.744;2023-02-28T00:58:17;10.98;;;5.18;;
48951;SDS011;34758;42.148;24.744;2023-02-28T01:00:45;12.00;;;5.53;;
48951;SDS011;34758;42.148;24.744;2023-02-28T01:03:15;12.23;;;5.40;;
48951;SDS011;34758;42.148;24.744;2023-02-28T01:05:44;15.52;;;5.70;;
48951;SDS011;34758;42.148;24.744;2023-02-28T01:08:11;9.93;;;5.28;;
48951;SDS011;34758;42.148;24.744;2023-02-28T01:10:39;13.40;;;5.05;;
48951;SDS011;34758;42.148;24.744;2023-02-28T01:13:06;12.13;;;5.15;;
48951;SDS011;34758;42.148;24.744;2023-02-28T01:15:34;10.20;;;5.00;;
48951;SDS011;34758;42.148;24.744;2023-02-28T01:18:07;9.63;;;4.93;;
48951;SDS011;34758;42.148;24.744;2023-02-28T01:20:38;13.50;;;5.18;;
48951;SDS011;34758;42.148;24.744;2023-02-28T01:23:06;12.27;;;4.97;;
48951;SDS011;34758;42.148;24.744;2023-02-28T01:25:34;9.02;;;4.15;;
48951;SDS011;34758;42.148;24.744;2023-02-28T01:28:02;10.52;;;4.55;;
48951;SDS011;34758;42.148;24.744;2023-02-28T01:30:29;9.00;;;4.57;;
48951;SDS011;34758;42.148;24.744;2023-02-28T01:32:57;12.20;;;4.80;;
48951;SDS011;34758;42.148;24.744;2023-02-28T01:35:26;9.27;;;4.72;;
48951;SDS011;34758;42.148;24.744;2023-02-28T01:37:53;10.80;;;4.57;;
48951;SDS011;34758;42.148;24.744;2023-02-28T01:40:20;12.90;;;3.78;;
48951;SDS011;34758;42.148;24.744;2023-02-28T01:42:50;12.65;;;4.55;;
48951;SDS011;34758;42.148;24.744;2023-02-28T01:45:22;10.52;;;4.40;;
48951;SDS011;34758;42.148;24.744;2023-02-28T01:47:51;9.68;;;4.53;;
48951;SDS011;34758;42.148;24.744;2023-02-28T01:50:23;9.85;;;4.03;;
48951;SDS011;34758;42.148;24.744;2023-02-28T01:53:01;11.70;;;4.50;;
48951;SDS011;34758;42.148;24.744;2023-02-28T01:55:31;10.48;;;3.88;;
48951;SDS011;34758;42.148;24.744;2023-02-28T01:58:02;12.05;;;4.35;;
48951;SDS011;34758;42.148;24.744;2023-02-28T02:00:32;14.55;;;4.47;;
48951;SDS011;34758;42.148;24.744;2023-02-28T02:03:00;11.52;;;4.47;;
48951;SDS011;34758;42.148;24.744;2023-02-28T02:05:35;10.77;;;4.18;;
48951;SDS011;34758;42.148;24.744;2023-02-28T02:08:04;9.68;;;4.28;;
48951;SDS011;34758;42.148;24.744;2023-02-28T02:10:33;11.80;;;4.15;;
48951;SDS011;34758;42.148;24.744;2023-02-28T02:13:08;8.35;;;4.75;;
48951;SDS011;34758;42.148;24.744;2023-02-28T02:15:42;8.48;;;4.35;;
48951;SDS011;34758;42.148;24.744;2023-02-28T02:18:18;24.67;;;7.10;;
48951;SDS011;34758;42.148;24.744;2023-02-28T02:21:07;18.23;;;7.30;;
48951;SDS011;34758;42.148;24.744;2023-02-28T02:24:17;18.95;;;7.18;;
48951;SDS011;34758;42.148;24.744;2023-02-28T02:27:08;14.43;;;6.40;;
48951;SDS011;34758;42.148;24.744;2023-02-28T02:33:28;15.07;;;6.20;;
48951;SDS011;34758;42.148;24.744;2023-02-28T02:36:14;13.02;;;6.53;;
48951;SDS011;34758;42.148;24.744;2023-02-28T02:38:47;17.55;;;6.47;;
48951;SDS011;34758;42.148;24.744;2023-02-28T02:41:18;16.08;;;6.25;;
48951;SDS011;34758;42.148;24.744;2023-02-28T02:43:51;14.23;;;6.60;;
48951;SDS011;34758;42.148;24.744;2023-02-28T02:46:23;15.45;;;6.22;;
48951;SDS011;34758;42.148;24.744;2023-02-28T02:48:53;13.38;;;6.00;;
48951;SDS011;34758;42.148;24.744;2023-02-28T02:51:23;14.35;;;6.43;;
48951;SDS011;34758;42.148;24.744;2023-02-28T02:53:51;15.80;;;6.60;;
48951;SDS011;34758;42.148;24.744;2023-02-28T02:56:21;13.20;;;5.93;;
48951;SDS011;34758;42.148;24.744;2023-02-28T02:58:51;14.45;;;6.90;;
48951;SDS011;34758;42.148;24.744;2023-02-28T03:01:21;15.60;;;6.28;;
48951;SDS011;34758;42.148;24.744;2023-02-28T03:03:54;15.63;;;6.30;;
48951;SDS011;34758;42.148;24.744;2023-02-28T03:06:24;13.77;;;6.63;;
48951;SDS011;34758;42.148;24.744;2023-02-28T03:08:51;9.85;;;6.47;;
48951;SDS011;34758;42.148;24.744;2023-02-28T03:11:20;14.15;;;6.80;;
48951;SDS011;34758;42.148;24.744;2023-02-28T03:14:05;17.48;;;7.00;;
48951;SDS011;34758;42.148;24.744;2023-02-28T03:16:45;17.83;;;7.50;;
48951;SDS011;34758;42.148;24.744;2023-02-28T03:22:17;11.85;;;7.05;;
48951;SDS011;34758;42.148;24.744;2023-02-28T03:25:17;12.63;;;6.82;;
48951;SDS011;34758;42.148;24.744;2023-02-28T03:27:49;13.67;;;7.93;;
48951;SDS011;34758;42.148;24.744;2023-02-28T03:30:26;12.55;;;7.35;;
48951;SDS011;34758;42.148;24.744;2023-02-28T03:33:00;10.98;;;6.90;;
48951;SDS011;34758;42.148;24.744;2023-02-28T03:35:32;16.67;;;7.72;;
48951;SDS011;34758;42.148;24.744;2023-02-28T03:38:05;15.38;;;7.97;;
48951;SDS011;34758;42.148;24.744;2023-02-28T03:40:34;14.38;;;8.18;;
48951;SDS011;34758;42.148;24.744;2023-02-28T03:43:07;12.60;;;7.30;;
48951;SDS011;34758;42.148;24.744;2023-02-28T03:45:38;16.02;;;7.88;;
48951;SDS011;34758;42.148;24.744;2023-02-28T03:48:12;16.65;;;9.50;;
48951;SDS011;34758;42.148;24.744;2023-02-28T03:50:40;11.20;;;7.63;;
48951;SDS011;34758;42.148;24.744;2023-02-28T03:53:10;13.82;;;8.55;;
48951;SDS011;34758;42.148;24.744;2023-02-28T03:55:40;15.80;;;8.32;;
48951;SDS011;34758;42.148;24.744;2023-02-28T03:58:12;14.63;;;8.15;;
48951;SDS011;34758;42.148;24.744;2023-02-28T04:00:45;13.77;;;8.82;;
48951;SDS011;34758;42.148;24.744;2023-02-28T04:03:13;11.73;;;8.02;;
48951;SDS011;34758;42.148;24.744;2023-02-28T04:05:49;12.93;;;8.05;;
48951;SDS011;34758;42.148;24.744;2023-02-28T04:08:18;12.95;;;7.90;;
48951;SDS011;34758;42.148;24.744;2023-02-28T04:10:47;15.35;;;8.60;;
48951;SDS011;34758;42.148;24.744;2023-02-28T04:13:17;14.47;;;8.57;;
48951;SDS011;34758;42.148;24.744;2023-02-28T04:15:44;14.55;;;8.75;;
48951;SDS011;34758;42.148;24.744;2023-02-28T04:18:12;11.75;;;7.45;;
48951;SDS011;34758;42.148;24.744;2023-02-28T04:20:39;13.70;;;8.40;;
48951;SDS011;34758;42.148;24.744;2023-02-28T04:23:06;13.85;;;8.90;;
48951;SDS011;34758;42.148;24.744;2023-02-28T04:25:49;13.25;;;8.35;;
48951;SDS011;34758;42.148;24.744;2023-02-28T04:28:16;14.32;;;8.70;;
48951;SDS011;34758;42.148;24.744;2023-02-28T04:30:43;12.93;;;7.78;;
48951;SDS011;34758;42.148;24.744;2023-02-28T04:33:11;11.90;;;7.75;;
48951;SDS011;34758;42.148;24.744;2023-02-28T04:35:40;16.13;;;7.70;;
48951;SDS011;34758;42.148;24.744;2023-02-28T04:38:17;13.25;;;7.60;;
48951;SDS011;34758;42.148;24.744;2023-02-28T04:40:45;15.40;;;7.40;;
48951;SDS011;34758;42.148;24.744;2023-02-28T04:43:14;10.75;;;7.05;;
48951;SDS011;34758;42.148;24.744;2023-02-28T04:45:45;15.65;;;9.50;;
48951;SDS011;34758;42.148;24.744;2023-02-28T04:48:12;13.43;;;8.10;;
48951;SDS011;34758;42.148;24.744;2023-02-28T04:50:40;12.60;;;7.80;;
48951;SDS011;34758;42.148;24.744;2023-02-28T04:53:07;12.45;;;7.72;;
48951;SDS011;34758;42.148;24.744;2023-02-28T04:55:35;14.40;;;7.95;;
48951;SDS011;34758;42.148;24.744;2023-02-28T04:58:05;13.30;;;7.65;;
48951;SDS011;34758;42.148;24.744;2023-02-28T05:00:34;14.40;;;8.48;;
48951;SDS011;34758;42.148;24.744;2023-02-28T05:03:01;12.23;;;8.40;;
48951;SDS011;34758;42.148;24.744;2023-02-28T05:05:28;15.32;;;8.27;;
48951;SDS011;34758;42.148;24.744;2023-02-28T05:07:59;11.68;;;8.27;;
48951;SDS011;34758;42.148;24.744;2023-02-28T05:10:26;12.10;;;7.82;;
48951;SDS011;34758;42.148;24.744;2023-02-28T05:12:54;13.90;;;8.65;;
48951;SDS011;34758;42.148;24.744;2023-02-28T05:15:22;11.18;;;8.13;;
48951;SDS011;34758;42.148;24.744;2023-02-28T05:17:51;10.35;;;7.30;;
48951;SDS011;34758;42.148;24.744;2023-02-28T05:20:18;13.25;;;7.93;;
48951;SDS011;34758;42.148;24.744;2023-02-28T05:22:46;10.75;;;7.35;;
48951;SDS011;34758;42.148;24.744;2023-02-28T05:25:15;11.00;;;7.60;;
48951;SDS011;34758;42.148;24.744;2023-02-28T05:27:45;13.20;;;8.68;;
48951;SDS011;34758;42.148;24.744;2023-02-28T05:30:15;12.75;;;7.15;;
48951;SDS011;34758;42.148;24.744;2023-02-28T05:32:42;10.93;;;7.75;;
48951;SDS011;34758;42.148;24.744;2023-02-28T05:35:11;11.95;;;7.22;;
48951;SDS011;34758;42.148;24.744;2023-02-28T05:37:39;13.68;;;8.10;;
48951;SDS011;34758;42.148;24.744;2023-02-28T05:40:07;12.13;;;8.32;;
48951;SDS011;34758;42.148;24.744;2023-02-28T05:42:36;10.10;;;7.97;;
48951;SDS011;34758;42.148;24.744;2023-02-28T05:45:05;13.52;;;8.38;;
48951;SDS011;34758;42.148;24.744;2023-02-28T05:47:33;12.15;;;7.55;;
48951;SDS011;34758;42.148;24.744;2023-02-28T05:50:03;11.60;;;7.90;;
48951;SDS011;34758;42.148;24.744;2023-02-28T05:52:32;12.30;;;8.30;;
48951;SDS011;34758;42.148;24.744;2023-02-28T05:54:59;13.68;;;9.07;;
48951;SDS011;34758;42.148;24.744;2023-02-28T05:57:27;12.85;;;9.05;;
48951;SDS011;34758;42.148;24.744;2023-02-28T05:59:53;17.27;;;9.20;;
48951;SDS011;34758;42.148;24.744;2023-02-28T06:02:21;15.20;;;8.63;;
48951;SDS011;34758;42.148;24.744;2023-02-28T06:04:48;15.52;;;9.10;;
48951;SDS011;34758;42.148;24.744;2023-02-28T06:07:15;12.45;;;8.43;;
48951;SDS011;34758;42.148;24.744;2023-02-28T06:09:44;11.70;;;8.07;;
48951;SDS011;34758;42.148;24.744;2023-02-28T06:12:11;14.77;;;9.07;;
48951;SDS011;34758;42.148;24.744;2023-02-28T06:14:39;11.75;;;8.23;;
48951;SDS011;34758;42.148;24.744;2023-02-28T06:17:08;14.80;;;9.93;;
48951;SDS011;34758;42.148;24.744;2023-02-28T06:19:36;15.73;;;9.43;;
48951;SDS011;34758;42.148;24.744;2023-02-28T06:22:06;13.73;;;8.60;;
48951;SDS011;34758;42.148;24.744;2023-02-28T06:24:33;17.52;;;8.35;;
48951;SDS011;34758;42.148;24.744;2023-02-28T06:27:02;11.82;;;8.55;;
48951;SDS011;34758;42.148;24.744;2023-02-28T06:29:30;12.93;;;8.98;;
48951;SDS011;34758;42.148;24.744;2023-02-28T06:32:05;12.38;;;8.27;;
48951;SDS011;34758;42.148;24.744;2023-02-28T06:34:34;12.45;;;8.95;;
48951;SDS011;34758;42.148;24.744;2023-02-28T06:37:02;12.73;;;9.13;;
48951;SDS011;34758;42.148;24.744;2023-02-28T06:39:29;14.13;;;8.63;;
48951;SDS011;34758;42.148;24.744;2023-02-28T06:41:56;13.43;;;9.07;;
48951;SDS011;34758;42.148;24.744;2023-02-28T06:44:25;14.75;;;9.57;;
48951;SDS011;34758;42.148;24.744;2023-02-28T06:46:52;14.32;;;9.10;;
48951;SDS011;34758;42.148;24.744;2023-02-28T06:49:23;11.80;;;9.30;;
48951;SDS011;34758;42.148;24.744;2023-02-28T06:51:50;14.43;;;9.90;;
48951;SDS011;34758;42.148;24.744;2023-02-28T06:54:20;15.70;;;9.57;;
48951;SDS011;34758;42.148;24.744;2023-02-28T06:56:47;14.25;;;9.75;;
48951;SDS011;34758;42.148;24.744;2023-02-28T06:59:20;14.60;;;9.75;;
48951;SDS011;34758;42.148;24.744;2023-02-28T07:01:49;16.08;;;10.10;;
48951;SDS011;34758;42.148;24.744;2023-02-28T07:04:17;14.05;;;9.45;;
48951;SDS011;34758;42.148;24.744;2023-02-28T07:06:45;16.23;;;9.77;;
48951;SDS011;34758;42.148;24.744;2023-02-28T07:09:12;18.17;;;11.05;;
48951;SDS011;34758;42.148;24.744;2023-02-28T07:11:41;15.77;;;9.80;;
48951;SDS011;34758;42.148;24.744;2023-02-28T07:14:10;18.33;;;10.30;;
48951;SDS011;34758;42.148;24.744;2023-02-28T07:16:37;14.30;;;9.07;;
48951;SDS011;34758;42.148;24.744;2023-02-28T07:19:05;11.68;;;8.82;;
48951;SDS011;34758;42.148;24.744;2023-02-28T07:21:33;15.38;;;8.90;;
48951;SDS011;34758;42.148;24.744;2023-02-28T07:24:01;16.30;;;10.35;;
48951;SDS011;34758;42.148;24.744;2023-02-28T07:26:30;13.15;;;9.40;;
48951;SDS011;34758;42.148;24.744;2023-02-28T07:28:59;16.27;;;9.95;;
48951;SDS011;34758;42.148;24.744;2023-02-28T07:31:26;17.80;;;10.75;;
48951;SDS011;34758;42.148;24.744;2023-02-28T07:33:53;19.98;;;10.32;;
48951;SDS011;34758;42.148;24.744;2023-02-28T07:36:24;15.18;;;10.48;;
48951;SDS011;34758;42.148;24.744;2023-02-28T07:38:51;16.75;;;9.95;;
48951;SDS011;34758;42.148;24.744;2023-02-28T07:41:19;14.48;;;10.65;;
48951;SDS011;34758;42.148;24.744;2023-02-28T07:43:47;18.77;;;10.55;;
48951;SDS011;34758;42.148;24.744;2023-02-28T07:46:15;18.00;;;10.93;;
48951;SDS011;34758;42.148;24.744;2023-02-28T07:48:45;18.10;;;11.17;;
48951;SDS011;34758;42.148;24.744;2023-02-28T07:51:12;16.55;;;12.13;;
48951;SDS011;34758;42.148;24.744;2023-02-28T07:53:45;16.80;;;11.98;;
48951;SDS011;34758;42.148;24.744;2023-02-28T07:56:12;18.67;;;12.20;;
48951;SDS011;34758;42.148;24.744;2023-02-28T07:58:39;17.35;;;11.05;;
48951;SDS011;34758;42.148;24.744;2023-02-28T08:01:06;17.80;;;11.10;;
48951;SDS011;34758;42.148;24.744;2023-02-28T08:03:36;18.33;;;11.27;;
48951;SDS011;34758;42.148;24.744;2023-02-28T08:06:04;18.95;;;11.25;;
48951;SDS011;34758;42.148;24.744;2023-02-28T08:08:33;19.00;;;11.13;;
48951;SDS011;34758;42.148;24.744;2023-02-28T08:11:03;19.80;;;12.05;;
48951;SDS011;34758;42.148;24.744;2023-02-28T08:13:30;18.48;;;11.48;;
48951;SDS011;34758;42.148;24.744;2023-02-28T08:15:57;19.42;;;12.82;;
48951;SDS011;34758;42.148;24.744;2023-02-28T08:18:24;15.07;;;11.43;;
48951;SDS011;34758;42.148;24.744;2023-02-28T08:20:53;19.92;;;13.00;;
48951;SDS011;34758;42.148;24.744;2023-02-28T08:23:20;22.90;;;12.10;;
48951;SDS011;34758;42.148;24.744;2023-02-28T08:25:52;39.00;;;26.60;;
48951;SDS011;34758;42.148;24.744;2023-02-28T08:28:24;18.52;;;11.82;;
48951;SDS011;34758;42.148;24.744;2023-02-28T08:30:51;18.67;;;12.02;;
48951;SDS011;34758;42.148;24.744;2023-02-28T08:33:18;18.77;;;12.27;;
48951;SDS011;34758;42.148;24.744;2023-02-28T08:35:45;17.17;;;12.20;;
48951;SDS011;34758;42.148;24.744;2023-02-28T08:38:13;20.73;;;12.55;;
48951;SDS011;34758;42.148;24.744;2023-02-28T08:40:41;19.52;;;12.23;;
48951;SDS011;34758;42.148;24.744;2023-02-28T08:43:08;23.63;;;12.95;;
48951;SDS011;34758;42.148;24.744;2023-02-28T08:45:36;20.13;;;13.05;;
48951;SDS011;34758;42.148;24.744;2023-02-28T08:48:04;19.70;;;12.32;;
48951;SDS011;34758;42.148;24.744;2023-02-28T08:50:32;22.90;;;13.40;;
48951;SDS011;34758;42.148;24.744;2023-02-28T08:53:00;20.40;;;13.95;;
48951;SDS011;34758;42.148;24.744;2023-02-28T08:55:28;19.77;;;12.73;;
48951;SDS011;34758;42.148;24.744;2023-02-28T08:57:58;20.75;;;11.70;;
48951;SDS011;34758;42.148;24.744;2023-02-28T09:00:28;19.88;;;13.30;;
48951;SDS011;34758;42.148;24.744;2023-02-28T09:03:01;20.42;;;13.05;;
48951;SDS011;34758;42.148;24.744;2023-02-28T09:05:28;22.33;;;12.68;;
48951;SDS011;34758;42.148;24.744;2023-02-28T09:07:56;19.17;;;13.00;;
48951;SDS011;34758;42.148;24.744;2023-02-28T09:10:23;16.38;;;12.05;;
48951;SDS011;34758;42.148;24.744;2023-02-28T09:12:50;21.35;;;12.73;;
48951;SDS011;34758;42.148;24.744;2023-02-28T09:15:19;18.42;;;12.00;;
48951;SDS011;34758;42.148;24.744;2023-02-28T09:17:46;21.67;;;12.90;;
48951;SDS011;34758;42.148;24.744;2023-02-28T09:20:15;16.35;;;11.15;;
48951;SDS011;34758;42.148;24.744;2023-02-28T09:22:43;28.02;;;12.95;;
48951;SDS011;34758;42.148;24.744;2023-02-28T09:25:12;15.02;;;11.80;;
48951;SDS011;34758;42.148;24.744;2023-02-28T09:27:40;15.65;;;10.27;;
48951;SDS011;34758;42.148;24.744;2023-02-28T09:30:08;17.35;;;12.15;;
48951;SDS011;34758;42.148;24.744;2023-02-28T09:32:37;17.67;;;10.80;;
48951;SDS011;34758;42.148;24.744;2023-02-28T09:35:05;13.40;;;11.20;;
48951;SDS011;34758;42.148;24.744;2023-02-28T09:37:41;17.08;;;11.43;;
48951;SDS011;34758;42.148;24.744;2023-02-28T09:42:38;16.08;;;10.95;;
48951;SDS011;34758;42.148;24.744;2023-02-28T09:45:06;17.73;;;10.70;;
48951;SDS011;34758;42.148;24.744;2023-02-28T09:47:40;14.38;;;9.93;;
48951;SDS011;34758;42.148;24.744;2023-02-28T09:50:13;16.42;;;10.90;;
48951;SDS011;34758;42.148;24.744;2023-02-28T09:52:47;22.98;;;13.57;;
48951;SDS011;34758;42.148;24.744;2023-02-28T09:55:22;20.42;;;13.13;;
48951;SDS011;34758;42.148;24.744;2023-02-28T09:57:54;19.67;;;12.70;;
48951;SDS011;34758;42.148;24.744;2023-02-28T10:00:27;21.42;;;11.63;;
48951;SDS011;34758;42.148;24.744;2023-02-28T10:03:03;19.08;;;12.80;;
48951;SDS011;34758;42.148;24.744;2023-02-28T10:05:36;21.27;;;13.63;;
48951;SDS011;34758;42.148;24.744;2023-02-28T10:08:10;24.88;;;12.82;;
48951;SDS011;34758;42.148;24.744;2023-02-28T10:10:39;21.15;;;13.25;;
48951;SDS011;34758;42.148;24.744;2023-02-28T10:15:52;20.52;;;13.95;;
48951;SDS011;34758;42.148;24.744;2023-02-28T10:18:23;23.15;;;14.32;;
48951;SDS011;34758;42.148;24.744;2023-02-28T10:20:51;19.52;;;13.70;;
48951;SDS011;34758;42.148;24.744;2023-02-28T10:23:21;20.13;;;14.45;;
48951;SDS011;34758;42.148;24.744;2023-02-28T10:25:53;19.90;;;15.00;;
48951;SDS011;34758;42.148;24.744;2023-02-28T10:28:24;22.67;;;15.27;;
48951;SDS011;34758;42.148;24.744;2023-02-28T10:30:52;22.98;;;15.07;;
48951;SDS011;34758;42.148;24.744;2023-02-28T10:33:28;23.65;;;17.10;;
48951;SDS011;34758;42.148;24.744;2023-02-28T10:35:56;22.30;;;15.52;;
48951;SDS011;34758;42.148;24.744;2023-02-28T10:38:26;20.70;;;14.07;;
48951;SDS011;34758;42.148;24.744;2023-02-28T10:41:02;28.52;;;17.65;;
48951;SDS011;34758;42.148;24.744;2023-02-28T10:43:30;28.77;;;17.98;;
48951;SDS011;34758;42.148;24.744;2023-02-28T10:45:58;24.95;;;16.55;;
48951;SDS011;34758;42.148;24.744;2023-02-28T10:48:31;27.02;;;17.98;;
48951;SDS011;34758;42.148;24.744;2023-02-28T10:51:00;28.88;;;20.55;;
48951;SDS011;34758;42.148;24.744;2023-02-28T10:53:35;26.05;;;16.17;;
48951;SDS011;34758;42.148;24.744;2023-02-28T10:56:05;25.38;;;17.05;;
48951;SDS011;34758;42.148;24.744;2023-02-28T10:58:46;27.27;;;16.35;;
48951;SDS011;34758;42.148;24.744;2023-02-28T11:01:24;24.67;;;17.13;;
48951;SDS011;34758;42.148;24.744;2023-02-28T11:03:53;26.80;;;17.00;;
48951;SDS011;34758;42.148;24.744;2023-02-28T11:06:23;30.85;;;18.98;;
48951;SDS011;34758;42.148;24.744;2023-02-28T11:08:55;28.02;;;17.27;;
48951;SDS011;34758;42.148;24.744;2023-02-28T11:11:24;25.10;;;17.42;;
48951;SDS011;34758;42.148;24.744;2023-02-28T11:13:55;24.05;;;15.82;;
48951;SDS011;34758;42.148;24.744;2023-02-28T11:16:31;23.98;;;13.73;;
48951;SDS011;34758;42.148;24.744;2023-02-28T11:19:00;25.95;;;15.85;;
48951;SDS011;34758;42.148;24.744;2023-02-28T11:21:29;20.55;;;14.73;;
48951;SDS011;34758;42.148;24.744;2023-02-28T11:24:02;21.98;;;15.07;;
48951;SDS011;34758;42.148;24.744;2023-02-28T11:26:38;23.25;;;13.95;;
48951;SDS011;34758;42.148;24.744;2023-02-28T11:29:16;21.08;;;12.23;;
48951;SDS011;34758;42.148;24.744;2023-02-28T11:32:00;20.33;;;13.55;;
48951;SDS011;34758;42.148;24.744;2023-02-28T11:34:34;19.63;;;13.68;;
48951;SDS011;34758;42.148;24.744;2023-02-28T11:37:02;18.95;;;14.48;;
48951;SDS011;34758;42.148;24.744;2023-02-28T11:39:33;29.35;;;18.25;;
48951;SDS011;34758;42.148;24.744;2023-02-28T11:42:07;30.90;;;20.85;;
48951;SDS011;34758;42.148;24.744;2023-02-28T11:44:55;34.83;;;22.70;;
48951;SDS011;34758;42.148;24.744;2023-02-28T11:47:31;29.45;;;20.50;;
48951;SDS011;34758;42.148;24.744;2023-02-28T11:50:04;21.23;;;16.65;;
48951;SDS011;34758;42.148;24.744;2023-02-28T11:52:40;20.08;;;15.85;;
48951;SDS011;34758;42.148;24.744;2023-02-28T11:55:16;24.50;;;17.27;;
48951;SDS011;34758;42.148;24.744;2023-02-28T11:57:55;23.17;;;16.33;;
48951;SDS011;34758;42.148;24.744;2023-02-28T12:00:30;24.55;;;18.27;;
48951;SDS011;34758;42.148;24.744;2023-02-28T12:03:11;20.42;;;15.70;;
48951;SDS011;34758;42.148;24.744;2023-02-28T12:05:46;24.60;;;16.95;;
48951;SDS011;34758;42.148;24.744;2023-02-28T12:08:21;23.65;;;17.08;;
48951;SDS011;34758;42.148;24.744;2023-02-28T12:11:05;19.77;;;15.88;;
48951;SDS011;34758;42.148;24.744;2023-02-28T12:13:43;26.13;;;17.45;;
48951;SDS011;34758;42.148;24.744;2023-02-28T12:16:24;23.83;;;17.00;;
48951;SDS011;34758;42.148;24.744;2023-02-28T12:19:00;24.15;;;16.83;;
48951;SDS011;34758;42.148;24.744;2023-02-28T12:21:40;20.92;;;16.98;;
48951;SDS011;34758;42.148;24.744;2023-02-28T12:24:22;26.33;;;17.42;;
48951;SDS011;34758;42.148;24.744;2023-02-28T12:26:56;24.25;;;17.33;;
48951;SDS011;34758;42.148;24.744;2023-02-28T12:29:28;26.88;;;17.27;;
48951;SDS011;34758;42.148;24.744;2023-02-28T12:31:56;23.70;;;18.45;;
48951;SDS011;34758;42.148;24.744;2023-02-28T12:34:28;24.38;;;19.38;;
48951;SDS011;34758;42.148;24.744;2023-02-28T12:37:09;26.70;;;19.63;;
48951;SDS011;34758;42.148;24.744;2023-02-28T12:39:43;24.98;;;19.40;;
48951;SDS011;34758;42.148;24.744;2023-02-28T12:42:15;29.55;;;20.58;;
48951;SDS011;34758;42.148;24.744;2023-02-28T12:44:49;27.30;;;21.13;;
48951;SDS011;34758;42.148;24.744;2023-02-28T12:47:18;28.17;;;19.52;;
48951;SDS011;34758;42.148;24.744;2023-02-28T12:49:46;28.50;;;18.23;;
48951;SDS011;34758;42.148;24.744;2023-02-28T12:52:17;22.33;;;17.13;;
48951;SDS011;34758;42.148;24.744;2023-02-28T12:54:49;28.88;;;19.50;;
48951;SDS011;34758;42.148;24.744;2023-02-28T12:57:25;28.38;;;18.63;;
48951;SDS011;34758;42.148;24.744;2023-02-28T12:59:56;28.85;;;18.83;;
48951;SDS011;34758;42.148;24.744;2023-02-28T13:11:28;27.17;;;18.08;;
48951;SDS011;34758;42.148;24.744;2023-02-28T13:13:59;23.83;;;17.38;;
48951;SDS011;34758;42.148;24.744;2023-02-28T13:16:42;21.20;;;17.20;;
48951;SDS011;34758;42.148;24.744;2023-02-28T13:19:22;24.50;;;17.55;;
48951;SDS011;34758;42.148;24.744;2023-02-28T13:21:51;22.55;;;17.48;;
48951;SDS011;34758;42.148;24.744;2023-02-28T13:24:38;22.80;;;15.95;;
48951;SDS011;34758;42.148;24.744;2023-02-28T13:27:22;27.80;;;17.67;;
48951;SDS011;34758;42.148;24.744;2023-02-28T13:33:24;20.90;;;15.15;;
48951;SDS011;34758;42.148;24.744;2023-02-28T13:36:07;22.85;;;14.68;;
48951;SDS011;34758;42.148;24.744;2023-02-28T13:38:49;22.80;;;15.32;;
48951;SDS011;34758;42.148;24.744;2023-02-28T13:44:17;21.48;;;15.88;;
48951;SDS011;34758;42.148;24.744;2023-02-28T13:49:47;25.25;;;17.40;;
48951;SDS011;34758;42.148;24.744;2023-02-28T13:52:15;21.88;;;17.23;;
48951;SDS011;34758;42.148;24.744;2023-02-28T13:54:56;24.85;;;16.48;;
48951;SDS011;34758;42.148;24.744;2023-02-28T13:57:44;21.27;;;15.82;;
48951;SDS011;34758;42.148;24.744;2023-02-28T14:00:23;23.73;;;16.67;;
48951;SDS011;34758;42.148;24.744;2023-02-28T14:03:05;21.85;;;17.17;;
48951;SDS011;34758;42.148;24.744;2023-02-28T14:05:45;22.63;;;17.88;;
48951;SDS011;34758;42.148;24.744;2023-02-28T14:08:15;22.13;;;17.48;;
48951;SDS011;34758;42.148;24.744;2023-02-28T14:10:44;24.00;;;16.85;;
48951;SDS011;34758;42.148;24.744;2023-02-28T14:13:14;19.88;;;15.32;;
48951;SDS011;34758;42.148;24.744;2023-02-28T14:16:10;18.45;;;15.02;;
48951;SDS011;34758;42.148;24.744;2023-02-28T14:18:37;16.00;;;13.77;;
48951;SDS011;34758;42.148;24.744;2023-02-28T14:21:16;18.95;;;15.05;;
48951;SDS011;34758;42.148;24.744;2023-02-28T14:27:03;20.88;;;12.45;;
48951;SDS011;34758;42.148;24.744;2023-02-28T14:32:48;16.77;;;12.82;;
48951;SDS011;34758;42.148;24.744;2023-02-28T14:35:27;17.55;;;12.93;;
48951;SDS011;34758;42.148;24.744;2023-02-28T14:38:08;16.35;;;12.10;;
48951;SDS011;34758;42.148;24.744;2023-02-28T14:40:41;19.65;;;13.40;;
48951;SDS011;34758;42.148;24.744;2023-02-28T14:43:16;13.07;;;11.10;;
48951;SDS011;34758;42.148;24.744;2023-02-28T14:45:53;13.63;;;10.75;;
48951;SDS011;34758;42.148;24.744;2023-02-28T14:48:21;14.13;;;11.38;;
48951;SDS011;34758;42.148;24.744;2023-02-28T14:50:49;14.90;;;10.98;;
48951;SDS011;34758;42.148;24.744;2023-02-28T14:53:21;13.15;;;10.77;;
48951;SDS011;34758;42.148;24.744;2023-02-28T14:55:49;18.30;;;12.10;;
48951;SDS011;34758;42.148;24.744;2023-02-28T14:58:22;15.50;;;11.15;;
48951;SDS011;34758;42.148;24.744;2023-02-28T15:00:53;14.60;;;11.15;;
48951;SDS011;34758;42.148;24.744;2023-02-28T15:03:21;16.08;;;11.38;;
48951;SDS011;34758;42.148;24.744;2023-02-28T15:05:53;14.43;;;11.25;;
48951;SDS011;34758;42.148;24.744;2023-02-28T15:10:52;16.25;;;12.57;;
48951;SDS011;34758;42.148;24.744;2023-02-28T15:13:21;13.88;;;11.13;;
48951;SDS011;34758;42.148;24.744;2023-02-28T15:15:50;15.57;;;12.95;;
48951;SDS011;34758;42.148;24.744;2023-02-28T15:18:24;14.75;;;11.68;;